Ilford, Canada
Current Conditions -  °F | °C
As of 3:00 PM on Wednesday 26 Nov 2014 (Local Time) from CYGX Reporting Station
Clear Clear  
Wind Chill: -26°   Ceiling: Unl
Heat Index: -9°   Visibility: 15mi
Dew Point: -17°   Wind: 8mph
Humidity: 71%   Direction: 260°W
Pressure: 30.36"   Gusts: NA
Location:  56.04°N, 95.58°W
Report Text: CYGX 262100Z 26007KT 15SM SKC M23/M27 A3036 RMK SLP305
Loading
Personal Weather Stations






























Interactive Weather Map New forecast layout! Learn more

10-Day Weather Forecast

Advertisements
Track Severe Weather on mobile